sensor_id;sensor_type;location;lat;lon;timestamp;P1;durP1;ratioP1;P2;durP2;ratioP2
7905;SDS011;13291;40.472;-3.878;2023-06-10T00:00:21;1.73;;;0.60;;
7905;SDS011;13291;40.472;-3.878;2023-06-10T00:02:48;1.50;;;0.80;;
7905;SDS011;13291;40.472;-3.878;2023-06-10T00:05:16;0.97;;;0.70;;
7905;SDS011;13291;40.472;-3.878;2023-06-10T00:07:46;2.00;;;1.00;;
7905;SDS011;13291;40.472;-3.878;2023-06-10T00:10:13;1.07;;;0.50;;
7905;SDS011;13291;40.472;-3.878;2023-06-10T00:12:41;1.10;;;0.60;;
7905;SDS011;13291;40.472;-3.878;2023-06-10T00:15:09;1.53;;;0.70;;
7905;SDS011;13291;40.472;-3.878;2023-06-10T00:17:36;1.50;;;0.53;;
7905;SDS011;13291;40.472;-3.878;2023-06-10T00:20:05;0.93;;;0.70;;
7905;SDS011;13291;40.472;-3.878;2023-06-10T00:22:35;3.93;;;0.80;;
7905;SDS011;13291;40.472;-3.878;2023-06-10T00:25:02;1.00;;;0.50;;
7905;SDS011;13291;40.472;-3.878;2023-06-10T00:27:30;1.53;;;0.90;;
7905;SDS011;13291;40.472;-3.878;2023-06-10T00:30:00;1.40;;;0.73;;
7905;SDS011;13291;40.472;-3.878;2023-06-10T00:32:29;1.63;;;0.80;;
7905;SDS011;13291;40.472;-3.878;2023-06-10T00:34:56;0.77;;;0.60;;
7905;SDS011;13291;40.472;-3.878;2023-06-10T00:37:23;0.90;;;0.60;;
7905;SDS011;13291;40.472;-3.878;2023-06-10T00:39:51;1.00;;;0.60;;
7905;SDS011;13291;40.472;-3.878;2023-06-10T00:42:18;1.10;;;0.53;;
7905;SDS011;13291;40.472;-3.878;2023-06-10T00:44:46;1.40;;;0.90;;
7905;SDS011;13291;40.472;-3.878;2023-06-10T00:47:13;0.90;;;0.60;;
7905;SDS011;13291;40.472;-3.878;2023-06-10T00:49:40;1.47;;;0.80;;
7905;SDS011;13291;40.472;-3.878;2023-06-10T00:52:08;1.67;;;0.80;;
7905;SDS011;13291;40.472;-3.878;2023-06-10T00:54:35;1.63;;;0.60;;
7905;SDS011;13291;40.472;-3.878;2023-06-10T00:57:05;1.37;;;0.70;;
7905;SDS011;13291;40.472;-3.878;2023-06-10T00:59:32;0.80;;;0.60;;
7905;SDS011;13291;40.472;-3.878;2023-06-10T01:02:00;1.07;;;0.60;;
7905;SDS011;13291;40.472;-3.878;2023-06-10T01:04:27;1.97;;;0.70;;
7905;SDS011;13291;40.472;-3.878;2023-06-10T01:06:55;4.40;;;1.20;;
7905;SDS011;13291;40.472;-3.878;2023-06-10T01:09:30;0.80;;;0.57;;
7905;SDS011;13291;40.472;-3.878;2023-06-10T01:12:09;1.10;;;0.50;;
7905;SDS011;13291;40.472;-3.878;2023-06-10T01:14:42;2.67;;;0.60;;
7905;SDS011;13291;40.472;-3.878;2023-06-10T01:17:10;0.90;;;0.70;;
7905;SDS011;13291;40.472;-3.878;2023-06-10T01:19:37;0.97;;;0.87;;
7905;SDS011;13291;40.472;-3.878;2023-06-10T01:22:07;2.93;;;0.80;;
7905;SDS011;13291;40.472;-3.878;2023-06-10T01:24:35;2.87;;;0.60;;
7905;SDS011;13291;40.472;-3.878;2023-06-10T01:27:05;1.80;;;0.80;;
7905;SDS011;13291;40.472;-3.878;2023-06-10T01:29:41;1.33;;;0.67;;
7905;SDS011;13291;40.472;-3.878;2023-06-10T01:32:14;0.90;;;0.70;;
7905;SDS011;13291;40.472;-3.878;2023-06-10T01:34:44;2.20;;;0.80;;
7905;SDS011;13291;40.472;-3.878;2023-06-10T01:37:15;1.00;;;0.70;;
7905;SDS011;13291;40.472;-3.878;2023-06-10T01:39:45;1.43;;;0.70;;
7905;SDS011;13291;40.472;-3.878;2023-06-10T01:42:13;1.77;;;0.80;;
7905;SDS011;13291;40.472;-3.878;2023-06-10T01:44:40;1.27;;;0.87;;
7905;SDS011;13291;40.472;-3.878;2023-06-10T01:47:08;2.37;;;0.83;;
7905;SDS011;13291;40.472;-3.878;2023-06-10T01:49:35;0.93;;;0.67;;
7905;SDS011;13291;40.472;-3.878;2023-06-10T01:52:02;1.00;;;0.67;;
7905;SDS011;13291;40.472;-3.878;2023-06-10T01:54:31;1.70;;;0.83;;
7905;SDS011;13291;40.472;-3.878;2023-06-10T01:56:59;1.50;;;0.67;;
7905;SDS011;13291;40.472;-3.878;2023-06-10T01:59:27;0.90;;;0.80;;
7905;SDS011;13291;40.472;-3.878;2023-06-10T02:01:54;1.30;;;0.80;;
7905;SDS011;13291;40.472;-3.878;2023-06-10T02:04:21;2.50;;;0.80;;
7905;SDS011;13291;40.472;-3.878;2023-06-10T02:06:47;1.00;;;0.50;;
7905;SDS011;13291;40.472;-3.878;2023-06-10T02:09:15;1.60;;;0.67;;
7905;SDS011;13291;40.472;-3.878;2023-06-10T02:11:44;1.30;;;0.80;;
7905;SDS011;13291;40.472;-3.878;2023-06-10T02:14:11;1.43;;;0.70;;
7905;SDS011;13291;40.472;-3.878;2023-06-10T02:16:38;4.10;;;0.80;;
7905;SDS011;13291;40.472;-3.878;2023-06-10T02:19:05;1.43;;;0.80;;
7905;SDS011;13291;40.472;-3.878;2023-06-10T02:21:32;1.73;;;0.90;;
7905;SDS011;13291;40.472;-3.878;2023-06-10T02:24:00;1.47;;;0.80;;
7905;SDS011;13291;40.472;-3.878;2023-06-10T02:26:28;1.70;;;0.70;;
7905;SDS011;13291;40.472;-3.878;2023-06-10T02:28:56;1.37;;;0.80;;
7905;SDS011;13291;40.472;-3.878;2023-06-10T02:31:23;2.00;;;0.80;;
7905;SDS011;13291;40.472;-3.878;2023-06-10T02:33:50;0.90;;;0.70;;
7905;SDS011;13291;40.472;-3.878;2023-06-10T02:36:17;1.43;;;0.90;;
7905;SDS011;13291;40.472;-3.878;2023-06-10T02:38:44;3.00;;;0.80;;
7905;SDS011;13291;40.472;-3.878;2023-06-10T02:41:11;1.53;;;0.80;;
7905;SDS011;13291;40.472;-3.878;2023-06-10T02:43:37;0.97;;;0.50;;
7905;SDS011;13291;40.472;-3.878;2023-06-10T02:46:06;0.80;;;0.60;;
7905;SDS011;13291;40.472;-3.878;2023-06-10T02:48:34;1.40;;;0.87;;
7905;SDS011;13291;40.472;-3.878;2023-06-10T02:51:08;2.10;;;0.63;;
7905;SDS011;13291;40.472;-3.878;2023-06-10T02:53:35;2.07;;;0.80;;
7905;SDS011;13291;40.472;-3.878;2023-06-10T02:56:02;1.43;;;0.73;;
7905;SDS011;13291;40.472;-3.878;2023-06-10T02:58:28;1.90;;;0.90;;
7905;SDS011;13291;40.472;-3.878;2023-06-10T03:00:55;1.57;;;0.60;;
7905;SDS011;13291;40.472;-3.878;2023-06-10T03:03:25;3.00;;;0.80;;
7905;SDS011;13291;40.472;-3.878;2023-06-10T03:05:52;0.80;;;0.60;;
7905;SDS011;13291;40.472;-3.878;2023-06-10T03:08:19;0.80;;;0.60;;
7905;SDS011;13291;40.472;-3.878;2023-06-10T03:10:46;0.93;;;0.50;;
7905;SDS011;13291;40.472;-3.878;2023-06-10T03:13:13;1.60;;;0.80;;
7905;SDS011;13291;40.472;-3.878;2023-06-10T03:15:40;1.33;;;0.67;;
7905;SDS011;13291;40.472;-3.878;2023-06-10T03:18:07;0.80;;;0.60;;
7905;SDS011;13291;40.472;-3.878;2023-06-10T03:20:36;1.20;;;0.80;;
7905;SDS011;13291;40.472;-3.878;2023-06-10T03:23:04;1.40;;;0.73;;
7905;SDS011;13291;40.472;-3.878;2023-06-10T03:25:32;1.23;;;1.07;;
7905;SDS011;13291;40.472;-3.878;2023-06-10T03:27:59;1.47;;;0.83;;
7905;SDS011;13291;40.472;-3.878;2023-06-10T03:30:26;1.40;;;0.90;;
7905;SDS011;13291;40.472;-3.878;2023-06-10T03:32:53;1.73;;;0.80;;
7905;SDS011;13291;40.472;-3.878;2023-06-10T03:35:20;1.70;;;0.77;;
7905;SDS011;13291;40.472;-3.878;2023-06-10T03:37:48;1.10;;;0.80;;
7905;SDS011;13291;40.472;-3.878;2023-06-10T03:40:15;2.53;;;1.17;;
7905;SDS011;13291;40.472;-3.878;2023-06-10T03:42:42;2.47;;;0.77;;
7905;SDS011;13291;40.472;-3.878;2023-06-10T03:45:10;1.63;;;0.80;;
7905;SDS011;13291;40.472;-3.878;2023-06-10T03:47:37;3.43;;;0.83;;
7905;SDS011;13291;40.472;-3.878;2023-06-10T03:50:06;1.40;;;0.73;;
7905;SDS011;13291;40.472;-3.878;2023-06-10T03:52:35;2.93;;;1.30;;
7905;SDS011;13291;40.472;-3.878;2023-06-10T03:55:04;1.90;;;1.13;;
7905;SDS011;13291;40.472;-3.878;2023-06-10T03:57:31;1.60;;;0.90;;
7905;SDS011;13291;40.472;-3.878;2023-06-10T03:59:58;1.80;;;1.00;;
7905;SDS011;13291;40.472;-3.878;2023-06-10T04:02:25;1.73;;;1.03;;
7905;SDS011;13291;40.472;-3.878;2023-06-10T04:04:52;3.43;;;1.30;;
7905;SDS011;13291;40.472;-3.878;2023-06-10T04:07:19;2.20;;;0.93;;
7905;SDS011;13291;40.472;-3.878;2023-06-10T04:09:46;0.90;;;0.80;;
7905;SDS011;13291;40.472;-3.878;2023-06-10T04:12:14;1.40;;;0.97;;
7905;SDS011;13291;40.472;-3.878;2023-06-10T04:14:41;1.40;;;0.90;;
7905;SDS011;13291;40.472;-3.878;2023-06-10T04:17:08;2.80;;;0.93;;
7905;SDS011;13291;40.472;-3.878;2023-06-10T04:19:35;1.40;;;1.20;;
7905;SDS011;13291;40.472;-3.878;2023-06-10T04:22:03;4.23;;;1.40;;
7905;SDS011;13291;40.472;-3.878;2023-06-10T04:24:30;1.30;;;1.00;;
7905;SDS011;13291;40.472;-3.878;2023-06-10T04:26:57;2.57;;;1.00;;
7905;SDS011;13291;40.472;-3.878;2023-06-10T04:29:25;1.40;;;0.83;;
7905;SDS011;13291;40.472;-3.878;2023-06-10T04:31:52;6.73;;;1.13;;
7905;SDS011;13291;40.472;-3.878;2023-06-10T04:34:19;1.67;;;0.90;;
7905;SDS011;13291;40.472;-3.878;2023-06-10T04:36:46;2.47;;;1.10;;
7905;SDS011;13291;40.472;-3.878;2023-06-10T04:39:13;1.83;;;0.80;;
7905;SDS011;13291;40.472;-3.878;2023-06-10T04:41:41;2.00;;;1.17;;
7905;SDS011;13291;40.472;-3.878;2023-06-10T04:44:08;1.93;;;1.00;;
7905;SDS011;13291;40.472;-3.878;2023-06-10T04:46:37;1.63;;;1.03;;
7905;SDS011;13291;40.472;-3.878;2023-06-10T04:49:04;2.10;;;1.20;;
7905;SDS011;13291;40.472;-3.878;2023-06-10T04:51:31;1.87;;;1.10;;
7905;SDS011;13291;40.472;-3.878;2023-06-10T04:53:58;1.80;;;1.07;;
7905;SDS011;13291;40.472;-3.878;2023-06-10T04:56:27;2.37;;;1.20;;
7905;SDS011;13291;40.472;-3.878;2023-06-10T04:58:55;3.90;;;1.27;;
7905;SDS011;13291;40.472;-3.878;2023-06-10T05:01:22;2.10;;;1.20;;
7905;SDS011;13291;40.472;-3.878;2023-06-10T05:03:50;3.80;;;1.40;;
7905;SDS011;13291;40.472;-3.878;2023-06-10T05:06:17;2.50;;;1.23;;
7905;SDS011;13291;40.472;-3.878;2023-06-10T05:08:44;2.30;;;1.10;;
7905;SDS011;13291;40.472;-3.878;2023-06-10T05:11:11;2.57;;;1.20;;
7905;SDS011;13291;40.472;-3.878;2023-06-10T05:13:37;0.90;;;0.80;;
7905;SDS011;13291;40.472;-3.878;2023-06-10T05:16:05;1.93;;;1.43;;
7905;SDS011;13291;40.472;-3.878;2023-06-10T05:18:32;2.00;;;1.23;;
7905;SDS011;13291;40.472;-3.878;2023-06-10T05:21:02;1.97;;;1.23;;
7905;SDS011;13291;40.472;-3.878;2023-06-10T05:23:29;3.63;;;1.73;;
7905;SDS011;13291;40.472;-3.878;2023-06-10T05:25:56;2.77;;;1.30;;
7905;SDS011;13291;40.472;-3.878;2023-06-10T05:28:23;2.80;;;1.20;;
7905;SDS011;13291;40.472;-3.878;2023-06-10T05:30:50;2.80;;;1.30;;
7905;SDS011;13291;40.472;-3.878;2023-06-10T05:33:17;2.20;;;1.03;;
7905;SDS011;13291;40.472;-3.878;2023-06-10T05:35:44;3.07;;;1.40;;
7905;SDS011;13291;40.472;-3.878;2023-06-10T05:38:12;1.60;;;1.30;;
7905;SDS011;13291;40.472;-3.878;2023-06-10T05:40:39;2.27;;;1.47;;
7905;SDS011;13291;40.472;-3.878;2023-06-10T05:43:06;2.90;;;1.30;;
7905;SDS011;13291;40.472;-3.878;2023-06-10T05:45:34;2.27;;;0.93;;
7905;SDS011;13291;40.472;-3.878;2023-06-10T05:48:01;1.83;;;1.37;;
7905;SDS011;13291;40.472;-3.878;2023-06-10T05:50:28;1.37;;;1.00;;
7905;SDS011;13291;40.472;-3.878;2023-06-10T05:52:55;1.83;;;1.23;;
7905;SDS011;13291;40.472;-3.878;2023-06-10T05:55:24;4.83;;;1.80;;
7905;SDS011;13291;40.472;-3.878;2023-06-10T05:57:57;1.87;;;1.43;;
7905;SDS011;13291;40.472;-3.878;2023-06-10T06:00:25;2.27;;;1.30;;
7905;SDS011;13291;40.472;-3.878;2023-06-10T06:02:52;2.20;;;1.20;;
7905;SDS011;13291;40.472;-3.878;2023-06-10T06:05:20;2.00;;;1.47;;
7905;SDS011;13291;40.472;-3.878;2023-06-10T06:07:47;2.10;;;1.47;;
7905;SDS011;13291;40.472;-3.878;2023-06-10T06:10:14;1.37;;;1.27;;
7905;SDS011;13291;40.472;-3.878;2023-06-10T06:12:42;1.30;;;1.20;;
7905;SDS011;13291;40.472;-3.878;2023-06-10T06:15:10;3.33;;;1.43;;
7905;SDS011;13291;40.472;-3.878;2023-06-10T06:17:37;4.13;;;1.93;;
7905;SDS011;13291;40.472;-3.878;2023-06-10T06:20:04;2.50;;;1.30;;
7905;SDS011;13291;40.472;-3.878;2023-06-10T06:22:32;1.80;;;1.20;;
7905;SDS011;13291;40.472;-3.878;2023-06-10T06:24:59;3.63;;;2.00;;
7905;SDS011;13291;40.472;-3.878;2023-06-10T06:27:26;3.60;;;2.00;;
7905;SDS011;13291;40.472;-3.878;2023-06-10T06:29:54;3.67;;;1.80;;
7905;SDS011;13291;40.472;-3.878;2023-06-10T06:32:21;2.47;;;1.60;;
7905;SDS011;13291;40.472;-3.878;2023-06-10T06:34:50;2.90;;;1.50;;
7905;SDS011;13291;40.472;-3.878;2023-06-10T06:37:19;3.80;;;1.80;;
7905;SDS011;13291;40.472;-3.878;2023-06-10T06:39:47;2.90;;;1.70;;
7905;SDS011;13291;40.472;-3.878;2023-06-10T06:42:14;2.40;;;1.47;;
7905;SDS011;13291;40.472;-3.878;2023-06-10T06:44:41;2.50;;;1.73;;
7905;SDS011;13291;40.472;-3.878;2023-06-10T06:47:09;2.40;;;1.60;;
7905;SDS011;13291;40.472;-3.878;2023-06-10T06:49:36;3.93;;;2.33;;
7905;SDS011;13291;40.472;-3.878;2023-06-10T06:52:03;2.60;;;1.50;;
7905;SDS011;13291;40.472;-3.878;2023-06-10T06:54:30;2.43;;;1.77;;
7905;SDS011;13291;40.472;-3.878;2023-06-10T06:56:57;2.77;;;1.63;;
7905;SDS011;13291;40.472;-3.878;2023-06-10T06:59:24;2.30;;;1.50;;
7905;SDS011;13291;40.472;-3.878;2023-06-10T07:01:51;2.00;;;1.77;;
7905;SDS011;13291;40.472;-3.878;2023-06-10T07:04:21;2.20;;;1.63;;
7905;SDS011;13291;40.472;-3.878;2023-06-10T07:06:48;3.70;;;2.00;;
7905;SDS011;13291;40.472;-3.878;2023-06-10T07:09:15;2.10;;;1.77;;
7905;SDS011;13291;40.472;-3.878;2023-06-10T07:11:41;4.03;;;1.80;;
7905;SDS011;13291;40.472;-3.878;2023-06-10T07:14:08;2.50;;;1.83;;
7905;SDS011;13291;40.472;-3.878;2023-06-10T07:16:35;3.03;;;1.97;;
7905;SDS011;13291;40.472;-3.878;2023-06-10T07:19:02;3.70;;;1.87;;
7905;SDS011;13291;40.472;-3.878;2023-06-10T07:21:30;5.53;;;1.90;;
7905;SDS011;13291;40.472;-3.878;2023-06-10T07:23:59;2.70;;;1.60;;
7905;SDS011;13291;40.472;-3.878;2023-06-10T07:26:25;2.37;;;1.60;;
7905;SDS011;13291;40.472;-3.878;2023-06-10T07:28:52;2.07;;;1.70;;
7905;SDS011;13291;40.472;-3.878;2023-06-10T07:31:19;2.10;;;1.70;;
7905;SDS011;13291;40.472;-3.878;2023-06-10T07:33:47;4.90;;;1.80;;
7905;SDS011;13291;40.472;-3.878;2023-06-10T07:36:13;1.83;;;1.50;;
7905;SDS011;13291;40.472;-3.878;2023-06-10T07:38:42;2.40;;;1.63;;
7905;SDS011;13291;40.472;-3.878;2023-06-10T07:41:09;3.00;;;1.53;;
7905;SDS011;13291;40.472;-3.878;2023-06-10T07:43:36;2.83;;;1.53;;
7905;SDS011;13291;40.472;-3.878;2023-06-10T07:46:03;2.70;;;2.00;;
7905;SDS011;13291;40.472;-3.878;2023-06-10T07:48:31;6.60;;;2.20;;
7905;SDS011;13291;40.472;-3.878;2023-06-10T07:50:58;2.97;;;1.87;;
7905;SDS011;13291;40.472;-3.878;2023-06-10T07:53:25;2.67;;;1.73;;
7905;SDS011;13291;40.472;-3.878;2023-06-10T07:55:53;1.70;;;1.40;;
7905;SDS011;13291;40.472;-3.878;2023-06-10T07:58:20;1.87;;;1.50;;
7905;SDS011;13291;40.472;-3.878;2023-06-10T08:00:47;2.73;;;2.00;;
7905;SDS011;13291;40.472;-3.878;2023-06-10T08:03:15;2.13;;;1.80;;
7905;SDS011;13291;40.472;-3.878;2023-06-10T08:05:42;2.30;;;1.40;;
7905;SDS011;13291;40.472;-3.878;2023-06-10T08:08:08;1.93;;;1.60;;
7905;SDS011;13291;40.472;-3.878;2023-06-10T08:10:35;3.27;;;1.90;;
7905;SDS011;13291;40.472;-3.878;2023-06-10T08:13:04;3.70;;;1.80;;
7905;SDS011;13291;40.472;-3.878;2023-06-10T08:15:31;3.37;;;2.23;;
7905;SDS011;13291;40.472;-3.878;2023-06-10T08:17:58;4.20;;;1.93;;
7905;SDS011;13291;40.472;-3.878;2023-06-10T08:20:25;3.27;;;1.73;;
7905;SDS011;13291;40.472;-3.878;2023-06-10T08:22:52;3.40;;;1.60;;
7905;SDS011;13291;40.472;-3.878;2023-06-10T08:25:19;4.07;;;1.67;;
7905;SDS011;13291;40.472;-3.878;2023-06-10T08:27:47;3.57;;;1.80;;
7905;SDS011;13291;40.472;-3.878;2023-06-10T08:30:15;4.00;;;2.00;;
7905;SDS011;13291;40.472;-3.878;2023-06-10T08:32:43;3.90;;;2.07;;
7905;SDS011;13291;40.472;-3.878;2023-06-10T08:35:10;5.27;;;2.20;;
7905;SDS011;13291;40.472;-3.878;2023-06-10T08:37:37;4.40;;;2.53;;
7905;SDS011;13291;40.472;-3.878;2023-06-10T08:40:04;2.50;;;1.50;;
7905;SDS011;13291;40.472;-3.878;2023-06-10T08:42:33;2.90;;;1.40;;
7905;SDS011;13291;40.472;-3.878;2023-06-10T08:45:04;5.13;;;1.93;;
7905;SDS011;13291;40.472;-3.878;2023-06-10T08:47:35;2.70;;;1.47;;
7905;SDS011;13291;40.472;-3.878;2023-06-10T08:50:06;3.17;;;1.73;;
7905;SDS011;13291;40.472;-3.878;2023-06-10T08:52:35;3.47;;;1.23;;
7905;SDS011;13291;40.472;-3.878;2023-06-10T08:55:03;2.80;;;1.30;;
7905;SDS011;13291;40.472;-3.878;2023-06-10T08:57:36;1.93;;;1.43;;
7905;SDS011;13291;40.472;-3.878;2023-06-10T09:00:04;2.53;;;1.60;;
7905;SDS011;13291;40.472;-3.878;2023-06-10T09:02:34;3.13;;;1.40;;
7905;SDS011;13291;40.472;-3.878;2023-06-10T09:05:03;3.30;;;1.70;;
7905;SDS011;13291;40.472;-3.878;2023-06-10T09:07:30;2.67;;;1.70;;
7905;SDS011;13291;40.472;-3.878;2023-06-10T09:09:59;1.50;;;1.40;;
7905;SDS011;13291;40.472;-3.878;2023-06-10T09:12:28;2.77;;;1.33;;
7905;SDS011;13291;40.472;-3.878;2023-06-10T09:14:56;3.07;;;2.10;;
7905;SDS011;13291;40.472;-3.878;2023-06-10T09:17:23;3.97;;;2.27;;
7905;SDS011;13291;40.472;-3.878;2023-06-10T09:19:51;2.20;;;1.33;;
7905;SDS011;13291;40.472;-3.878;2023-06-10T09:22:20;1.90;;;1.10;;
7905;SDS011;13291;40.472;-3.878;2023-06-10T09:24:48;2.40;;;1.13;;
7905;SDS011;13291;40.472;-3.878;2023-06-10T09:27:15;2.80;;;1.03;;
7905;SDS011;13291;40.472;-3.878;2023-06-10T09:29:45;1.40;;;1.17;;
7905;SDS011;13291;40.472;-3.878;2023-06-10T09:32:13;2.90;;;1.67;;
7905;SDS011;13291;40.472;-3.878;2023-06-10T09:34:40;4.60;;;1.20;;
7905;SDS011;13291;40.472;-3.878;2023-06-10T09:37:08;1.60;;;1.20;;
7905;SDS011;13291;40.472;-3.878;2023-06-10T09:39:37;1.70;;;1.20;;
7905;SDS011;13291;40.472;-3.878;2023-06-10T09:42:10;2.27;;;1.07;;
7905;SDS011;13291;40.472;-3.878;2023-06-10T09:44:42;2.30;;;1.10;;
7905;SDS011;13291;40.472;-3.878;2023-06-10T09:47:19;2.60;;;1.53;;
7905;SDS011;13291;40.472;-3.878;2023-06-10T09:49:46;2.37;;;1.30;;
7905;SDS011;13291;40.472;-3.878;2023-06-10T09:52:14;1.93;;;1.27;;
7905;SDS011;13291;40.472;-3.878;2023-06-10T09:54:48;2.00;;;1.10;;
7905;SDS011;13291;40.472;-3.878;2023-06-10T09:57:15;1.90;;;1.10;;
7905;SDS011;13291;40.472;-3.878;2023-06-10T09:59:43;2.23;;;1.40;;
7905;SDS011;13291;40.472;-3.878;2023-06-10T10:02:13;1.87;;;1.40;;
7905;SDS011;13291;40.472;-3.878;2023-06-10T10:04:41;4.17;;;1.87;;
7905;SDS011;13291;40.472;-3.878;2023-06-10T10:07:08;2.40;;;1.40;;
7905;SDS011;13291;40.472;-3.878;2023-06-10T10:09:37;2.00;;;1.50;;
7905;SDS011;13291;40.472;-3.878;2023-06-10T10:12:04;3.77;;;1.60;;
7905;SDS011;13291;40.472;-3.878;2023-06-10T10:14:36;1.90;;;1.63;;
7905;SDS011;13291;40.472;-3.878;2023-06-10T10:17:07;3.60;;;1.70;;
7905;SDS011;13291;40.472;-3.878;2023-06-10T10:19:37;3.30;;;1.90;;
7905;SDS011;13291;40.472;-3.878;2023-06-10T10:22:14;4.03;;;1.30;;
7905;SDS011;13291;40.472;-3.878;2023-06-10T10:24:49;3.37;;;2.30;;
7905;SDS011;13291;40.472;-3.878;2023-06-10T10:27:18;1.40;;;1.10;;
7905;SDS011;13291;40.472;-3.878;2023-06-10T10:29:53;1.90;;;1.57;;
7905;SDS011;13291;40.472;-3.878;2023-06-10T10:32:22;4.30;;;1.47;;
7905;SDS011;13291;40.472;-3.878;2023-06-10T10:34:57;1.90;;;1.17;;
7905;SDS011;13291;40.472;-3.878;2023-06-10T10:37:31;2.20;;;1.67;;
7905;SDS011;13291;40.472;-3.878;2023-06-10T10:39:59;1.50;;;1.00;;
7905;SDS011;13291;40.472;-3.878;2023-06-10T10:42:27;1.30;;;1.20;;
7905;SDS011;13291;40.472;-3.878;2023-06-10T10:44:54;2.13;;;1.10;;
7905;SDS011;13291;40.472;-3.878;2023-06-10T10:47:22;1.83;;;1.30;;
7905;SDS011;13291;40.472;-3.878;2023-06-10T10:49:52;3.20;;;1.20;;
7905;SDS011;13291;40.472;-3.878;2023-06-10T10:52:19;1.90;;;0.90;;
7905;SDS011;13291;40.472;-3.878;2023-06-10T10:54:46;1.57;;;0.90;;
7905;SDS011;13291;40.472;-3.878;2023-06-10T10:57:16;1.83;;;0.97;;
7905;SDS011;13291;40.472;-3.878;2023-06-10T10:59:44;1.93;;;1.10;;
7905;SDS011;13291;40.472;-3.878;2023-06-10T11:02:16;2.33;;;1.17;;
7905;SDS011;13291;40.472;-3.878;2023-06-10T11:04:47;2.37;;;1.30;;
7905;SDS011;13291;40.472;-3.878;2023-06-10T11:07:14;2.50;;;1.33;;
7905;SDS011;13291;40.472;-3.878;2023-06-10T11:09:57;1.67;;;1.10;;
7905;SDS011;13291;40.472;-3.878;2023-06-10T11:12:26;3.23;;;1.10;;
7905;SDS011;13291;40.472;-3.878;2023-06-10T11:15:07;1.90;;;1.20;;
7905;SDS011;13291;40.472;-3.878;2023-06-10T11:17:34;2.10;;;1.03;;
7905;SDS011;13291;40.472;-3.878;2023-06-10T11:20:02;5.57;;;1.10;;
7905;SDS011;13291;40.472;-3.878;2023-06-10T11:22:29;2.30;;;1.00;;
7905;SDS011;13291;40.472;-3.878;2023-06-10T11:24:56;1.97;;;0.97;;
7905;SDS011;13291;40.472;-3.878;2023-06-10T11:27:25;1.40;;;0.67;;
7905;SDS011;13291;40.472;-3.878;2023-06-10T11:30:17;2.60;;;0.97;;
7905;SDS011;13291;40.472;-3.878;2023-06-10T11:32:46;1.57;;;1.10;;
7905;SDS011;13291;40.472;-3.878;2023-06-10T11:35:18;1.10;;;0.90;;
7905;SDS011;13291;40.472;-3.878;2023-06-10T11:37:46;0.93;;;0.70;;
7905;SDS011;13291;40.472;-3.878;2023-06-10T11:40:14;2.40;;;1.00;;
7905;SDS011;13291;40.472;-3.878;2023-06-10T11:42:43;1.53;;;1.10;;
7905;SDS011;13291;40.472;-3.878;2023-06-10T11:45:14;1.47;;;0.90;;
7905;SDS011;13291;40.472;-3.878;2023-06-10T11:47:54;1.13;;;0.80;;
7905;SDS011;13291;40.472;-3.878;2023-06-10T11:50:27;2.23;;;1.10;;
7905;SDS011;13291;40.472;-3.878;2023-06-10T11:52:54;1.20;;;0.87;;
7905;SDS011;13291;40.472;-3.878;2023-06-10T11:55:23;1.60;;;1.07;;
7905;SDS011;13291;40.472;-3.878;2023-06-10T11:57:52;2.87;;;1.03;;
7905;SDS011;13291;40.472;-3.878;2023-06-10T12:00:22;1.47;;;0.70;;
7905;SDS011;13291;40.472;-3.878;2023-06-10T12:02:55;1.37;;;0.90;;
7905;SDS011;13291;40.472;-3.878;2023-06-10T12:05:23;1.07;;;0.90;;
7905;SDS011;13291;40.472;-3.878;2023-06-10T12:10:38;1.77;;;1.10;;
7905;SDS011;13291;40.472;-3.878;2023-06-10T12:13:07;1.30;;;0.90;;
7905;SDS011;13291;40.472;-3.878;2023-06-10T12:15:35;5.50;;;0.80;;
7905;SDS011;13291;40.472;-3.878;2023-06-10T12:18:02;6.80;;;1.00;;
7905;SDS011;13291;40.472;-3.878;2023-06-10T12:20:30;1.87;;;0.87;;
7905;SDS011;13291;40.472;-3.878;2023-06-10T12:22:59;2.90;;;0.90;;
7905;SDS011;13291;40.472;-3.878;2023-06-10T12:25:27;3.77;;;1.03;;
7905;SDS011;13291;40.472;-3.878;2023-06-10T12:27:55;1.03;;;0.80;;
7905;SDS011;13291;40.472;-3.878;2023-06-10T12:30:25;1.10;;;1.00;;
7905;SDS011;13291;40.472;-3.878;2023-06-10T12:32:53;4.47;;;1.10;;
7905;SDS011;13291;40.472;-3.878;2023-06-10T12:35:21;3.90;;;1.10;;
7905;SDS011;13291;40.472;-3.878;2023-06-10T12:37:56;1.23;;;0.73;;
7905;SDS011;13291;40.472;-3.878;2023-06-10T12:40:28;1.20;;;0.90;;
7905;SDS011;13291;40.472;-3.878;2023-06-10T12:42:56;3.03;;;1.10;;
7905;SDS011;13291;40.472;-3.878;2023-06-10T12:45:28;0.90;;;0.73;;
7905;SDS011;13291;40.472;-3.878;2023-06-10T12:48:04;2.10;;;1.23;;
7905;SDS011;13291;40.472;-3.878;2023-06-10T12:50:34;1.70;;;1.00;;
7905;SDS011;13291;40.472;-3.878;2023-06-10T12:53:02;9.50;;;1.00;;
7905;SDS011;13291;40.472;-3.878;2023-06-10T12:55:29;1.43;;;1.00;;
7905;SDS011;13291;40.472;-3.878;2023-06-10T12:57:56;2.57;;;0.90;;
7905;SDS011;13291;40.472;-3.878;2023-06-10T13:00:23;1.40;;;0.97;;
7905;SDS011;13291;40.472;-3.878;2023-06-10T13:02:52;2.10;;;1.10;;
7905;SDS011;13291;40.472;-3.878;2023-06-10T13:05:19;1.93;;;0.93;;
7905;SDS011;13291;40.472;-3.878;2023-06-10T13:07:46;1.27;;;1.00;;
7905;SDS011;13291;40.472;-3.878;2023-06-10T13:10:14;0.90;;;0.83;;
7905;SDS011;13291;40.472;-3.878;2023-06-10T13:12:41;3.20;;;1.00;;
7905;SDS011;13291;40.472;-3.878;2023-06-10T13:15:08;2.67;;;0.83;;
7905;SDS011;13291;40.472;-3.878;2023-06-10T13:17:36;2.23;;;1.10;;
7905;SDS011;13291;40.472;-3.878;2023-06-10T13:20:04;2.93;;;1.20;;
7905;SDS011;13291;40.472;-3.878;2023-06-10T13:22:33;1.77;;;0.80;;
7905;SDS011;13291;40.472;-3.878;2023-06-10T13:25:01;0.90;;;0.70;;
7905;SDS011;13291;40.472;-3.878;2023-06-10T13:27:29;2.87;;;1.00;;
7905;SDS011;13291;40.472;-3.878;2023-06-10T13:29:56;2.37;;;0.87;;
7905;SDS011;13291;40.472;-3.878;2023-06-10T13:32:23;2.47;;;0.90;;
7905;SDS011;13291;40.472;-3.878;2023-06-10T13:34:50;4.57;;;0.97;;
7905;SDS011;13291;40.472;-3.878;2023-06-10T13:37:19;1.37;;;0.73;;
7905;SDS011;13291;40.472;-3.878;2023-06-10T13:39:46;1.43;;;0.77;;
7905;SDS011;13291;40.472;-3.878;2023-06-10T13:42:15;2.70;;;1.50;;
7905;SDS011;13291;40.472;-3.878;2023-06-10T13:44:42;1.80;;;0.97;;
7905;SDS011;13291;40.472;-3.878;2023-06-10T13:47:09;1.87;;;1.00;;
7905;SDS011;13291;40.472;-3.878;2023-06-10T13:49:36;1.07;;;0.90;;
7905;SDS011;13291;40.472;-3.878;2023-06-10T13:52:04;2.10;;;1.10;;
7905;SDS011;13291;40.472;-3.878;2023-06-10T13:54:33;1.90;;;0.90;;
7905;SDS011;13291;40.472;-3.878;2023-06-10T13:57:01;3.03;;;0.80;;
7905;SDS011;13291;40.472;-3.878;2023-06-10T13:59:28;1.80;;;0.90;;
7905;SDS011;13291;40.472;-3.878;2023-06-10T14:01:54;1.27;;;0.80;;
7905;SDS011;13291;40.472;-3.878;2023-06-10T14:04:21;1.53;;;0.80;;
7905;SDS011;13291;40.472;-3.878;2023-06-10T14:06:48;3.60;;;0.90;;
7905;SDS011;13291;40.472;-3.878;2023-06-10T14:09:16;1.30;;;1.03;;
7905;SDS011;13291;40.472;-3.878;2023-06-10T14:11:44;2.83;;;0.77;;
7905;SDS011;13291;40.472;-3.878;2023-06-10T14:14:11;1.57;;;0.90;;
7905;SDS011;13291;40.472;-3.878;2023-06-10T14:16:39;1.50;;;1.00;;
7905;SDS011;13291;40.472;-3.878;2023-06-10T14:19:06;0.90;;;0.70;;
7905;SDS011;13291;40.472;-3.878;2023-06-10T14:21:33;1.80;;;0.87;;
7905;SDS011;13291;40.472;-3.878;2023-06-10T14:24:00;1.03;;;0.70;;
7905;SDS011;13291;40.472;-3.878;2023-06-10T14:26:27;3.20;;;0.97;;
7905;SDS011;13291;40.472;-3.878;2023-06-10T14:28:55;0.90;;;0.73;;
7905;SDS011;13291;40.472;-3.878;2023-06-10T14:31:22;1.17;;;0.87;;
7905;SDS011;13291;40.472;-3.878;2023-06-10T14:33:49;2.67;;;1.10;;
7905;SDS011;13291;40.472;-3.878;2023-06-10T14:36:16;2.33;;;0.90;;
7905;SDS011;13291;40.472;-3.878;2023-06-10T14:38:42;1.80;;;0.90;;
7905;SDS011;13291;40.472;-3.878;2023-06-10T14:41:11;0.70;;;0.70;;
7905;SDS011;13291;40.472;-3.878;2023-06-10T14:43:38;1.30;;;1.00;;
7905;SDS011;13291;40.472;-3.878;2023-06-10T14:46:06;1.20;;;0.80;;
7905;SDS011;13291;40.472;-3.878;2023-06-10T14:48:33;2.70;;;0.87;;
7905;SDS011;13291;40.472;-3.878;2023-06-10T14:51:01;2.20;;;1.00;;
7905;SDS011;13291;40.472;-3.878;2023-06-10T14:53:28;1.60;;;0.70;;
7905;SDS011;13291;40.472;-3.878;2023-06-10T14:55:55;1.00;;;0.80;;